sensor_id;sensor_type;location;lat;lon;timestamp;P1;durP1;ratioP1;P2;durP2;ratioP2
14470;SDS011;7321;50.802;4.336;2022-07-09T00:00:26;3.63;;;3.30;;
14470;SDS011;7321;50.802;4.336;2022-07-09T00:02:52;4.10;;;3.53;;
14470;SDS011;7321;50.802;4.336;2022-07-09T00:05:18;4.65;;;3.10;;
14470;SDS011;7321;50.802;4.336;2022-07-09T00:07:44;7.20;;;4.18;;
14470;SDS011;7321;50.802;4.336;2022-07-09T00:10:09;6.63;;;3.88;;
14470;SDS011;7321;50.802;4.336;2022-07-09T00:12:36;7.25;;;4.10;;
14470;SDS011;7321;50.802;4.336;2022-07-09T00:15:02;5.75;;;3.90;;
14470;SDS011;7321;50.802;4.336;2022-07-09T00:17:28;6.03;;;3.88;;
14470;SDS011;7321;50.802;4.336;2022-07-09T00:19:57;3.60;;;3.28;;
14470;SDS011;7321;50.802;4.336;2022-07-09T00:22:23;5.20;;;3.42;;
14470;SDS011;7321;50.802;4.336;2022-07-09T00:24:49;3.60;;;3.30;;
14470;SDS011;7321;50.802;4.336;2022-07-09T00:27:15;4.80;;;3.63;;
14470;SDS011;7321;50.802;4.336;2022-07-09T00:29:40;3.40;;;3.10;;
14470;SDS011;7321;50.802;4.336;2022-07-09T00:32:06;3.40;;;3.10;;
14470;SDS011;7321;50.802;4.336;2022-07-09T00:34:32;5.25;;;3.45;;
14470;SDS011;7321;50.802;4.336;2022-07-09T00:36:59;4.05;;;3.50;;
14470;SDS011;7321;50.802;4.336;2022-07-09T00:39:25;4.05;;;3.65;;
14470;SDS011;7321;50.802;4.336;2022-07-09T00:42:01;4.38;;;3.33;;
14470;SDS011;7321;50.802;4.336;2022-07-09T00:44:31;3.83;;;3.30;;
14470;SDS011;7321;50.802;4.336;2022-07-09T00:46:57;4.35;;;3.83;;
14470;SDS011;7321;50.802;4.336;2022-07-09T00:49:27;3.47;;;3.15;;
14470;SDS011;7321;50.802;4.336;2022-07-09T00:51:55;4.20;;;3.47;;
14470;SDS011;7321;50.802;4.336;2022-07-09T00:54:23;3.67;;;3.08;;
14470;SDS011;7321;50.802;4.336;2022-07-09T00:56:49;3.60;;;3.30;;
14470;SDS011;7321;50.802;4.336;2022-07-09T00:59:17;5.28;;;3.67;;
14470;SDS011;7321;50.802;4.336;2022-07-09T01:01:43;5.28;;;3.60;;
14470;SDS011;7321;50.802;4.336;2022-07-09T01:04:09;4.80;;;3.30;;
14470;SDS011;7321;50.802;4.336;2022-07-09T01:06:35;4.22;;;3.60;;
14470;SDS011;7321;50.802;4.336;2022-07-09T01:09:03;4.38;;;3.53;;
14470;SDS011;7321;50.802;4.336;2022-07-09T01:11:29;3.78;;;3.47;;
14470;SDS011;7321;50.802;4.336;2022-07-09T01:13:56;4.35;;;3.95;;
14470;SDS011;7321;50.802;4.336;2022-07-09T01:16:29;4.80;;;3.72;;
14470;SDS011;7321;50.802;4.336;2022-07-09T01:18:59;3.97;;;3.58;;
14470;SDS011;7321;50.802;4.336;2022-07-09T01:21:25;3.75;;;3.45;;
14470;SDS011;7321;50.802;4.336;2022-07-09T01:23:51;3.88;;;3.47;;
14470;SDS011;7321;50.802;4.336;2022-07-09T01:26:17;5.18;;;3.83;;
14470;SDS011;7321;50.802;4.336;2022-07-09T01:28:45;3.92;;;3.40;;
14470;SDS011;7321;50.802;4.336;2022-07-09T01:31:11;3.50;;;3.20;;
14470;SDS011;7321;50.802;4.336;2022-07-09T01:33:37;6.68;;;3.70;;
14470;SDS011;7321;50.802;4.336;2022-07-09T01:36:05;4.85;;;3.50;;
14470;SDS011;7321;50.802;4.336;2022-07-09T01:38:31;7.53;;;3.60;;
14470;SDS011;7321;50.802;4.336;2022-07-09T01:40:57;4.18;;;3.67;;
14470;SDS011;7321;50.802;4.336;2022-07-09T01:43:23;5.93;;;3.40;;
14470;SDS011;7321;50.802;4.336;2022-07-09T01:45:50;4.93;;;3.50;;
14470;SDS011;7321;50.802;4.336;2022-07-09T01:48:16;3.83;;;3.40;;
14470;SDS011;7321;50.802;4.336;2022-07-09T01:50:41;7.00;;;3.63;;
14470;SDS011;7321;50.802;4.336;2022-07-09T01:53:07;3.60;;;3.17;;
14470;SDS011;7321;50.802;4.336;2022-07-09T01:55:33;4.10;;;3.70;;
14470;SDS011;7321;50.802;4.336;2022-07-09T01:57:59;3.60;;;3.30;;
14470;SDS011;7321;50.802;4.336;2022-07-09T02:00:25;4.05;;;3.55;;
14470;SDS011;7321;50.802;4.336;2022-07-09T02:02:53;4.40;;;3.22;;
14470;SDS011;7321;50.802;4.336;2022-07-09T02:05:19;4.65;;;3.45;;
14470;SDS011;7321;50.802;4.336;2022-07-09T02:07:45;5.82;;;3.90;;
14470;SDS011;7321;50.802;4.336;2022-07-09T02:10:12;4.07;;;3.50;;
14470;SDS011;7321;50.802;4.336;2022-07-09T02:12:38;4.75;;;3.58;;
14470;SDS011;7321;50.802;4.336;2022-07-09T02:15:05;5.40;;;3.35;;
14470;SDS011;7321;50.802;4.336;2022-07-09T02:17:34;4.95;;;3.63;;
14470;SDS011;7321;50.802;4.336;2022-07-09T02:20:00;5.63;;;3.55;;
14470;SDS011;7321;50.802;4.336;2022-07-09T02:22:26;4.15;;;3.72;;
14470;SDS011;7321;50.802;4.336;2022-07-09T02:24:52;5.50;;;3.43;;
14470;SDS011;7321;50.802;4.336;2022-07-09T02:27:18;5.97;;;3.53;;
14470;SDS011;7321;50.802;4.336;2022-07-09T02:29:44;3.83;;;3.30;;
14470;SDS011;7321;50.802;4.336;2022-07-09T02:32:10;5.15;;;3.58;;
14470;SDS011;7321;50.802;4.336;2022-07-09T02:34:36;4.07;;;3.67;;
14470;SDS011;7321;50.802;4.336;2022-07-09T02:37:03;5.03;;;4.03;;
14470;SDS011;7321;50.802;4.336;2022-07-09T02:39:29;6.72;;;4.13;;
14470;SDS011;7321;50.802;4.336;2022-07-09T02:41:55;4.15;;;3.75;;
14470;SDS011;7321;50.802;4.336;2022-07-09T02:44:21;4.13;;;3.72;;
14470;SDS011;7321;50.802;4.336;2022-07-09T02:46:47;3.97;;;3.67;;
14470;SDS011;7321;50.802;4.336;2022-07-09T02:49:12;5.97;;;3.92;;
14470;SDS011;7321;50.802;4.336;2022-07-09T02:51:38;5.13;;;3.97;;
14470;SDS011;7321;50.802;4.336;2022-07-09T02:54:04;4.53;;;4.10;;
14470;SDS011;7321;50.802;4.336;2022-07-09T02:56:30;5.18;;;4.15;;
14470;SDS011;7321;50.802;4.336;2022-07-09T02:58:59;7.40;;;4.25;;
14470;SDS011;7321;50.802;4.336;2022-07-09T03:01:24;4.90;;;4.40;;
14470;SDS011;7321;50.802;4.336;2022-07-09T03:03:50;5.50;;;4.53;;
14470;SDS011;7321;50.802;4.336;2022-07-09T03:06:17;6.90;;;3.85;;
14470;SDS011;7321;50.802;4.336;2022-07-09T03:08:43;4.00;;;3.65;;
14470;SDS011;7321;50.802;4.336;2022-07-09T03:11:09;3.42;;;3.22;;
14470;SDS011;7321;50.802;4.336;2022-07-09T03:13:35;7.03;;;3.60;;
14470;SDS011;7321;50.802;4.336;2022-07-09T03:16:04;5.38;;;3.70;;
14470;SDS011;7321;50.802;4.336;2022-07-09T03:18:31;4.18;;;3.63;;
14470;SDS011;7321;50.802;4.336;2022-07-09T03:20:58;4.22;;;3.50;;
14470;SDS011;7321;50.802;4.336;2022-07-09T03:23:24;4.22;;;3.80;;
14470;SDS011;7321;50.802;4.336;2022-07-09T03:25:50;5.50;;;3.70;;
14470;SDS011;7321;50.802;4.336;2022-07-09T03:28:16;4.03;;;3.47;;
14470;SDS011;7321;50.802;4.336;2022-07-09T03:30:41;4.45;;;3.47;;
14470;SDS011;7321;50.802;4.336;2022-07-09T03:33:07;4.40;;;3.45;;
14470;SDS011;7321;50.802;4.336;2022-07-09T03:35:33;3.92;;;3.53;;
14470;SDS011;7321;50.802;4.336;2022-07-09T03:37:59;5.25;;;3.40;;
14470;SDS011;7321;50.802;4.336;2022-07-09T03:40:24;4.88;;;4.00;;
14470;SDS011;7321;50.802;4.336;2022-07-09T03:42:51;4.00;;;3.58;;
14470;SDS011;7321;50.802;4.336;2022-07-09T03:45:17;5.65;;;3.55;;
14470;SDS011;7321;50.802;4.336;2022-07-09T03:47:43;3.88;;;3.47;;
14470;SDS011;7321;50.802;4.336;2022-07-09T03:50:09;7.78;;;3.90;;
14470;SDS011;7321;50.802;4.336;2022-07-09T03:52:35;4.95;;;3.60;;
14470;SDS011;7321;50.802;4.336;2022-07-09T03:55:00;5.00;;;3.47;;
14470;SDS011;7321;50.802;4.336;2022-07-09T03:57:26;4.05;;;3.65;;
14470;SDS011;7321;50.802;4.336;2022-07-09T03:59:52;5.75;;;3.60;;
14470;SDS011;7321;50.802;4.336;2022-07-09T04:02:17;6.28;;;4.65;;
14470;SDS011;7321;50.802;4.336;2022-07-09T04:04:43;4.20;;;3.78;;
14470;SDS011;7321;50.802;4.336;2022-07-09T04:07:09;4.15;;;3.33;;
14470;SDS011;7321;50.802;4.336;2022-07-09T04:09:35;5.90;;;3.83;;
14470;SDS011;7321;50.802;4.336;2022-07-09T04:12:01;6.13;;;4.00;;
14470;SDS011;7321;50.802;4.336;2022-07-09T04:14:26;6.25;;;3.97;;
14470;SDS011;7321;50.802;4.336;2022-07-09T04:16:52;6.35;;;3.72;;
14470;SDS011;7321;50.802;4.336;2022-07-09T04:19:18;6.40;;;4.38;;
14470;SDS011;7321;50.802;4.336;2022-07-09T04:21:44;4.07;;;3.67;;
14470;SDS011;7321;50.802;4.336;2022-07-09T04:24:10;9.75;;;4.80;;
14470;SDS011;7321;50.802;4.336;2022-07-09T04:26:35;5.68;;;4.18;;
14470;SDS011;7321;50.802;4.336;2022-07-09T04:29:01;5.97;;;4.75;;
14470;SDS011;7321;50.802;4.336;2022-07-09T04:31:27;6.43;;;4.25;;
14470;SDS011;7321;50.802;4.336;2022-07-09T04:33:53;5.95;;;4.75;;
14470;SDS011;7321;50.802;4.336;2022-07-09T04:36:19;9.55;;;5.00;;
14470;SDS011;7321;50.802;4.336;2022-07-09T04:38:45;5.53;;;5.03;;
14470;SDS011;7321;50.802;4.336;2022-07-09T04:41:10;6.32;;;5.40;;
14470;SDS011;7321;50.802;4.336;2022-07-09T04:43:36;8.13;;;5.15;;
14470;SDS011;7321;50.802;4.336;2022-07-09T04:46:03;7.63;;;5.50;;
14470;SDS011;7321;50.802;4.336;2022-07-09T04:48:28;5.68;;;5.28;;
14470;SDS011;7321;50.802;4.336;2022-07-09T04:50:54;6.63;;;5.38;;
14470;SDS011;7321;50.802;4.336;2022-07-09T04:53:20;6.95;;;5.43;;
14470;SDS011;7321;50.802;4.336;2022-07-09T04:55:46;6.25;;;5.65;;
14470;SDS011;7321;50.802;4.336;2022-07-09T04:58:15;7.05;;;5.70;;
14470;SDS011;7321;50.802;4.336;2022-07-09T05:00:41;7.38;;;6.60;;
14470;SDS011;7321;50.802;4.336;2022-07-09T05:03:06;9.23;;;6.50;;
14470;SDS011;7321;50.802;4.336;2022-07-09T05:05:32;11.35;;;7.68;;
14470;SDS011;7321;50.802;4.336;2022-07-09T05:07:58;7.60;;;7.00;;
14470;SDS011;7321;50.802;4.336;2022-07-09T05:10:24;8.73;;;6.80;;
14470;SDS011;7321;50.802;4.336;2022-07-09T05:12:50;7.78;;;6.65;;
14470;SDS011;7321;50.802;4.336;2022-07-09T05:15:15;7.68;;;6.88;;
14470;SDS011;7321;50.802;4.336;2022-07-09T05:17:41;7.88;;;7.05;;
14470;SDS011;7321;50.802;4.336;2022-07-09T05:20:07;8.77;;;7.40;;
14470;SDS011;7321;50.802;4.336;2022-07-09T05:22:34;7.93;;;7.25;;
14470;SDS011;7321;50.802;4.336;2022-07-09T05:25:01;9.70;;;8.00;;
14470;SDS011;7321;50.802;4.336;2022-07-09T05:27:28;10.35;;;8.25;;
14470;SDS011;7321;50.802;4.336;2022-07-09T05:29:54;16.00;;;9.02;;
14470;SDS011;7321;50.802;4.336;2022-07-09T05:32:20;9.38;;;8.30;;
14470;SDS011;7321;50.802;4.336;2022-07-09T05:34:46;9.60;;;8.25;;
14470;SDS011;7321;50.802;4.336;2022-07-09T05:37:12;10.93;;;8.68;;
14470;SDS011;7321;50.802;4.336;2022-07-09T05:39:38;9.10;;;8.18;;
14470;SDS011;7321;50.802;4.336;2022-07-09T05:42:04;10.95;;;8.32;;
14470;SDS011;7321;50.802;4.336;2022-07-09T05:44:30;11.50;;;8.10;;
14470;SDS011;7321;50.802;4.336;2022-07-09T05:46:56;9.55;;;7.97;;
14470;SDS011;7321;50.802;4.336;2022-07-09T05:49:22;8.70;;;7.82;;
14470;SDS011;7321;50.802;4.336;2022-07-09T05:51:48;8.68;;;7.60;;
14470;SDS011;7321;50.802;4.336;2022-07-09T05:54:13;9.85;;;8.27;;
14470;SDS011;7321;50.802;4.336;2022-07-09T05:56:39;10.65;;;7.97;;
14470;SDS011;7321;50.802;4.336;2022-07-09T05:59:06;8.95;;;8.10;;
14470;SDS011;7321;50.802;4.336;2022-07-09T06:01:32;9.80;;;9.00;;
14470;SDS011;7321;50.802;4.336;2022-07-09T06:03:58;8.65;;;7.75;;
14470;SDS011;7321;50.802;4.336;2022-07-09T06:06:23;9.27;;;8.30;;
14470;SDS011;7321;50.802;4.336;2022-07-09T06:08:49;11.00;;;8.15;;
14470;SDS011;7321;50.802;4.336;2022-07-09T06:11:15;9.88;;;7.68;;
14470;SDS011;7321;50.802;4.336;2022-07-09T06:13:41;10.52;;;8.95;;
14470;SDS011;7321;50.802;4.336;2022-07-09T06:16:07;9.05;;;8.15;;
14470;SDS011;7321;50.802;4.336;2022-07-09T06:18:32;9.25;;;8.10;;
14470;SDS011;7321;50.802;4.336;2022-07-09T06:20:58;10.27;;;7.95;;
14470;SDS011;7321;50.802;4.336;2022-07-09T06:23:25;10.75;;;7.63;;
14470;SDS011;7321;50.802;4.336;2022-07-09T06:25:51;10.40;;;8.07;;
14470;SDS011;7321;50.802;4.336;2022-07-09T06:28:17;9.07;;;7.57;;
14470;SDS011;7321;50.802;4.336;2022-07-09T06:30:43;7.63;;;6.93;;
14470;SDS011;7321;50.802;4.336;2022-07-09T06:33:09;7.82;;;7.05;;
14470;SDS011;7321;50.802;4.336;2022-07-09T06:35:34;7.88;;;6.95;;
14470;SDS011;7321;50.802;4.336;2022-07-09T06:38:00;8.73;;;6.60;;
14470;SDS011;7321;50.802;4.336;2022-07-09T06:40:26;10.30;;;8.02;;
14470;SDS011;7321;50.802;4.336;2022-07-09T06:42:52;9.73;;;7.63;;
14470;SDS011;7321;50.802;4.336;2022-07-09T06:45:17;8.45;;;7.57;;
14470;SDS011;7321;50.802;4.336;2022-07-09T06:47:43;8.18;;;7.40;;
14470;SDS011;7321;50.802;4.336;2022-07-09T06:50:09;7.40;;;6.70;;
14470;SDS011;7321;50.802;4.336;2022-07-09T06:52:35;6.88;;;6.28;;
14470;SDS011;7321;50.802;4.336;2022-07-09T06:55:01;7.63;;;6.20;;
14470;SDS011;7321;50.802;4.336;2022-07-09T06:57:27;7.85;;;6.47;;
14470;SDS011;7321;50.802;4.336;2022-07-09T06:59:54;7.38;;;6.45;;
14470;SDS011;7321;50.802;4.336;2022-07-09T07:02:20;8.52;;;6.68;;
14470;SDS011;7321;50.802;4.336;2022-07-09T07:04:45;9.07;;;6.53;;
14470;SDS011;7321;50.802;4.336;2022-07-09T07:07:11;6.65;;;5.80;;
14470;SDS011;7321;50.802;4.336;2022-07-09T07:09:37;6.07;;;5.43;;
14470;SDS011;7321;50.802;4.336;2022-07-09T07:12:03;6.65;;;6.07;;
14470;SDS011;7321;50.802;4.336;2022-07-09T07:14:29;8.18;;;6.55;;
14470;SDS011;7321;50.802;4.336;2022-07-09T07:16:54;6.97;;;6.28;;
14470;SDS011;7321;50.802;4.336;2022-07-09T07:19:23;7.70;;;5.78;;
14470;SDS011;7321;50.802;4.336;2022-07-09T07:21:48;7.78;;;5.53;;
14470;SDS011;7321;50.802;4.336;2022-07-09T07:24:14;6.88;;;6.20;;
14470;SDS011;7321;50.802;4.336;2022-07-09T07:26:40;7.53;;;5.30;;
14470;SDS011;7321;50.802;4.336;2022-07-09T07:29:06;9.30;;;5.57;;
14470;SDS011;7321;50.802;4.336;2022-07-09T07:31:32;5.85;;;5.30;;
14470;SDS011;7321;50.802;4.336;2022-07-09T07:33:58;8.57;;;5.53;;
14470;SDS011;7321;50.802;4.336;2022-07-09T07:36:25;5.90;;;5.10;;
14470;SDS011;7321;50.802;4.336;2022-07-09T07:38:51;7.03;;;5.78;;
14470;SDS011;7321;50.802;4.336;2022-07-09T07:41:18;6.75;;;6.20;;
14470;SDS011;7321;50.802;4.336;2022-07-09T07:43:44;7.88;;;7.07;;
14470;SDS011;7321;50.802;4.336;2022-07-09T07:46:10;8.32;;;7.47;;
14470;SDS011;7321;50.802;4.336;2022-07-09T07:48:36;10.40;;;7.90;;
14470;SDS011;7321;50.802;4.336;2022-07-09T07:51:02;8.50;;;7.53;;
14470;SDS011;7321;50.802;4.336;2022-07-09T07:53:31;8.60;;;6.78;;
14470;SDS011;7321;50.802;4.336;2022-07-09T07:55:59;9.30;;;7.55;;
14470;SDS011;7321;50.802;4.336;2022-07-09T07:58:26;8.82;;;7.95;;
14470;SDS011;7321;50.802;4.336;2022-07-09T08:00:51;9.93;;;7.85;;
14470;SDS011;7321;50.802;4.336;2022-07-09T08:03:17;8.63;;;7.38;;
14470;SDS011;7321;50.802;4.336;2022-07-09T08:05:43;11.77;;;7.47;;
14470;SDS011;7321;50.802;4.336;2022-07-09T08:08:09;9.90;;;7.43;;
14470;SDS011;7321;50.802;4.336;2022-07-09T08:10:35;11.05;;;7.57;;
14470;SDS011;7321;50.802;4.336;2022-07-09T08:13:00;9.25;;;7.28;;
14470;SDS011;7321;50.802;4.336;2022-07-09T08:15:26;7.10;;;6.38;;
14470;SDS011;7321;50.802;4.336;2022-07-09T08:17:52;8.98;;;6.88;;
14470;SDS011;7321;50.802;4.336;2022-07-09T08:20:18;6.82;;;6.22;;
14470;SDS011;7321;50.802;4.336;2022-07-09T08:22:45;6.95;;;6.35;;
14470;SDS011;7321;50.802;4.336;2022-07-09T08:25:11;8.25;;;6.55;;
14470;SDS011;7321;50.802;4.336;2022-07-09T08:27:37;6.72;;;5.93;;
14470;SDS011;7321;50.802;4.336;2022-07-09T08:30:03;7.18;;;6.05;;
14470;SDS011;7321;50.802;4.336;2022-07-09T08:32:29;8.73;;;7.30;;
14470;SDS011;7321;50.802;4.336;2022-07-09T08:34:55;8.77;;;6.38;;
14470;SDS011;7321;50.802;4.336;2022-07-09T08:37:20;6.78;;;6.03;;
14470;SDS011;7321;50.802;4.336;2022-07-09T08:39:46;6.70;;;6.10;;
14470;SDS011;7321;50.802;4.336;2022-07-09T08:42:12;15.18;;;13.55;;
14470;SDS011;7321;50.802;4.336;2022-07-09T08:44:38;8.63;;;7.72;;
14470;SDS011;7321;50.802;4.336;2022-07-09T08:47:07;6.85;;;6.35;;
14470;SDS011;7321;50.802;4.336;2022-07-09T08:49:39;10.77;;;6.90;;
14470;SDS011;7321;50.802;4.336;2022-07-09T08:52:06;7.70;;;6.10;;
14470;SDS011;7321;50.802;4.336;2022-07-09T08:54:33;7.82;;;6.32;;
14470;SDS011;7321;50.802;4.336;2022-07-09T08:57:05;6.60;;;5.90;;
14470;SDS011;7321;50.802;4.336;2022-07-09T08:59:31;6.50;;;5.90;;
14470;SDS011;7321;50.802;4.336;2022-07-09T09:02:02;8.48;;;6.95;;
14470;SDS011;7321;50.802;4.336;2022-07-09T09:04:29;11.15;;;7.20;;
14470;SDS011;7321;50.802;4.336;2022-07-09T09:06:55;8.23;;;6.82;;
14470;SDS011;7321;50.802;4.336;2022-07-09T09:09:21;7.82;;;7.22;;
14470;SDS011;7321;50.802;4.336;2022-07-09T09:11:48;8.73;;;7.90;;
14470;SDS011;7321;50.802;4.336;2022-07-09T09:14:20;9.70;;;8.35;;
14470;SDS011;7321;50.802;4.336;2022-07-09T09:16:47;8.50;;;7.22;;
14470;SDS011;7321;50.802;4.336;2022-07-09T09:19:13;7.65;;;6.90;;
14470;SDS011;7321;50.802;4.336;2022-07-09T09:21:39;7.75;;;6.60;;
14470;SDS011;7321;50.802;4.336;2022-07-09T09:24:05;7.90;;;7.10;;
14470;SDS011;7321;50.802;4.336;2022-07-09T09:26:31;7.97;;;7.28;;
14470;SDS011;7321;50.802;4.336;2022-07-09T09:29:01;8.43;;;7.47;;
14470;SDS011;7321;50.802;4.336;2022-07-09T09:31:31;9.98;;;7.53;;
14470;SDS011;7321;50.802;4.336;2022-07-09T09:39:19;11.80;;;10.60;;
14470;SDS011;7321;50.802;4.336;2022-07-09T09:41:52;10.85;;;9.85;;
14470;SDS011;7321;50.802;4.336;2022-07-09T09:44:23;13.48;;;12.07;;
14470;SDS011;7321;50.802;4.336;2022-07-09T09:46:51;11.73;;;10.63;;
14470;SDS011;7321;50.802;4.336;2022-07-09T09:49:18;12.05;;;10.85;;
14470;SDS011;7321;50.802;4.336;2022-07-09T09:51:46;12.05;;;10.85;;
14470;SDS011;7321;50.802;4.336;2022-07-09T09:54:15;11.60;;;10.50;;
14470;SDS011;7321;50.802;4.336;2022-07-09T09:56:43;15.60;;;14.07;;
14470;SDS011;7321;50.802;4.336;2022-07-09T09:59:09;16.85;;;15.20;;
14470;SDS011;7321;50.802;4.336;2022-07-09T10:01:36;16.17;;;14.65;;
14470;SDS011;7321;50.802;4.336;2022-07-09T10:04:04;21.75;;;19.65;;
14470;SDS011;7321;50.802;4.336;2022-07-09T10:06:32;21.48;;;19.40;;
14470;SDS011;7321;50.802;4.336;2022-07-09T10:09:00;22.70;;;20.70;;
14470;SDS011;7321;50.802;4.336;2022-07-09T10:11:37;28.00;;;25.50;;
14470;SDS011;7321;50.802;4.336;2022-07-09T10:14:07;34.85;;;31.63;;
14470;SDS011;7321;50.802;4.336;2022-07-09T10:16:39;30.23;;;27.45;;
14470;SDS011;7321;50.802;4.336;2022-07-09T10:19:05;27.00;;;24.50;;
14470;SDS011;7321;50.802;4.336;2022-07-09T10:21:35;31.63;;;28.52;;
14470;SDS011;7321;50.802;4.336;2022-07-09T10:24:06;30.30;;;27.60;;
14470;SDS011;7321;50.802;4.336;2022-07-09T10:26:37;30.05;;;26.95;;
14470;SDS011;7321;50.802;4.336;2022-07-09T10:29:27;27.55;;;25.08;;
14470;SDS011;7321;50.802;4.336;2022-07-09T10:31:54;28.85;;;26.17;;
14470;SDS011;7321;50.802;4.336;2022-07-09T10:36:59;25.45;;;23.00;;
14470;SDS011;7321;50.802;4.336;2022-07-09T10:39:26;25.35;;;22.92;;
14470;SDS011;7321;50.802;4.336;2022-07-09T10:42:02;22.83;;;20.73;;
14470;SDS011;7321;50.802;4.336;2022-07-09T10:44:43;20.13;;;18.17;;
14470;SDS011;7321;50.802;4.336;2022-07-09T10:47:10;18.95;;;16.95;;
14470;SDS011;7321;50.802;4.336;2022-07-09T10:49:36;17.42;;;15.82;;
14470;SDS011;7321;50.802;4.336;2022-07-09T10:52:02;18.27;;;16.48;;
14470;SDS011;7321;50.802;4.336;2022-07-09T10:54:30;16.85;;;15.15;;
14470;SDS011;7321;50.802;4.336;2022-07-09T10:56:56;19.85;;;17.95;;
14470;SDS011;7321;50.802;4.336;2022-07-09T10:59:22;18.10;;;16.13;;
14470;SDS011;7321;50.802;4.336;2022-07-09T11:01:49;13.07;;;11.98;;
14470;SDS011;7321;50.802;4.336;2022-07-09T11:04:26;14.30;;;12.80;;
14470;SDS011;7321;50.802;4.336;2022-07-09T11:06:53;15.02;;;13.48;;
14470;SDS011;7321;50.802;4.336;2022-07-09T11:09:19;15.68;;;14.15;;
14470;SDS011;7321;50.802;4.336;2022-07-09T11:11:45;14.55;;;13.07;;
14470;SDS011;7321;50.802;4.336;2022-07-09T11:14:12;14.23;;;12.75;;
14470;SDS011;7321;50.802;4.336;2022-07-09T11:16:39;12.75;;;11.48;;
14470;SDS011;7321;50.802;4.336;2022-07-09T11:21:39;11.18;;;10.27;;
14470;SDS011;7321;50.802;4.336;2022-07-09T11:24:18;9.18;;;7.45;;
14470;SDS011;7321;50.802;4.336;2022-07-09T11:26:47;5.53;;;4.93;;
14470;SDS011;7321;50.802;4.336;2022-07-09T11:29:14;5.00;;;4.60;;
14470;SDS011;7321;50.802;4.336;2022-07-09T11:31:49;4.93;;;4.43;;
14470;SDS011;7321;50.802;4.336;2022-07-09T11:34:16;6.30;;;5.25;;
14470;SDS011;7321;50.802;4.336;2022-07-09T11:36:43;3.60;;;3.40;;
14470;SDS011;7321;50.802;4.336;2022-07-09T11:39:23;5.50;;;3.70;;
14470;SDS011;7321;50.802;4.336;2022-07-09T11:41:49;4.20;;;3.78;;
14470;SDS011;7321;50.802;4.336;2022-07-09T11:44:19;3.50;;;2.65;;
14470;SDS011;7321;50.802;4.336;2022-07-09T11:47:08;3.67;;;2.67;;
14470;SDS011;7321;50.802;4.336;2022-07-09T11:49:36;6.10;;;3.05;;
14470;SDS011;7321;50.802;4.336;2022-07-09T11:52:23;3.30;;;3.00;;
14470;SDS011;7321;50.802;4.336;2022-07-09T11:54:56;4.13;;;2.85;;
14470;SDS011;7321;50.802;4.336;2022-07-09T11:57:27;3.55;;;3.25;;
14470;SDS011;7321;50.802;4.336;2022-07-09T11:59:54;3.72;;;3.42;;
14470;SDS011;7321;50.802;4.336;2022-07-09T12:02:29;3.80;;;3.50;;
14470;SDS011;7321;50.802;4.336;2022-07-09T12:05:08;3.33;;;3.13;;
14470;SDS011;7321;50.802;4.336;2022-07-09T12:07:34;3.13;;;2.80;;
14470;SDS011;7321;50.802;4.336;2022-07-09T12:10:07;4.53;;;3.15;;
14470;SDS011;7321;50.802;4.336;2022-07-09T12:12:35;3.67;;;2.80;;
14470;SDS011;7321;50.802;4.336;2022-07-09T12:15:03;2.90;;;2.63;;
14470;SDS011;7321;50.802;4.336;2022-07-09T12:17:30;4.30;;;3.53;;
14470;SDS011;7321;50.802;4.336;2022-07-09T12:19:57;4.63;;;3.63;;
14470;SDS011;7321;50.802;4.336;2022-07-09T12:22:24;3.35;;;3.05;;
14470;SDS011;7321;50.802;4.336;2022-07-09T12:24:51;4.63;;;4.07;;
14470;SDS011;7321;50.802;4.336;2022-07-09T12:27:18;4.03;;;3.72;;
14470;SDS011;7321;50.802;4.336;2022-07-09T12:29:45;5.35;;;3.70;;
14470;SDS011;7321;50.802;4.336;2022-07-09T12:32:12;3.38;;;3.08;;
14470;SDS011;7321;50.802;4.336;2022-07-09T12:34:38;4.72;;;3.40;;
14470;SDS011;7321;50.802;4.336;2022-07-09T12:37:04;5.30;;;3.45;;
14470;SDS011;7321;50.802;4.336;2022-07-09T12:39:30;4.55;;;2.90;;
14470;SDS011;7321;50.802;4.336;2022-07-09T12:41:56;4.55;;;3.17;;
14470;SDS011;7321;50.802;4.336;2022-07-09T12:44:23;4.35;;;3.38;;
14470;SDS011;7321;50.802;4.336;2022-07-09T12:46:50;5.88;;;4.20;;
14470;SDS011;7321;50.802;4.336;2022-07-09T12:49:16;4.50;;;4.07;;
14470;SDS011;7321;50.802;4.336;2022-07-09T12:51:42;6.10;;;5.63;;
14470;SDS011;7321;50.802;4.336;2022-07-09T12:54:08;4.85;;;3.33;;
14470;SDS011;7321;50.802;4.336;2022-07-09T12:56:34;3.33;;;2.97;;
14470;SDS011;7321;50.802;4.336;2022-07-09T12:59:01;3.63;;;2.72;;
14470;SDS011;7321;50.802;4.336;2022-07-09T13:01:27;2.67;;;2.47;;
14470;SDS011;7321;50.802;4.336;2022-07-09T13:03:53;4.32;;;2.42;;
14470;SDS011;7321;50.802;4.336;2022-07-09T13:06:19;2.45;;;2.30;;
14470;SDS011;7321;50.802;4.336;2022-07-09T13:08:57;2.88;;;2.10;;
14470;SDS011;7321;50.802;4.336;2022-07-09T13:11:27;2.22;;;2.03;;
14470;SDS011;7321;50.802;4.336;2022-07-09T13:13:53;2.38;;;1.58;;
14470;SDS011;7321;50.802;4.336;2022-07-09T13:16:19;3.42;;;1.38;;
14470;SDS011;7321;50.802;4.336;2022-07-09T13:18:45;3.03;;;1.50;;
14470;SDS011;7321;50.802;4.336;2022-07-09T13:21:11;4.15;;;1.30;;
14470;SDS011;7321;50.802;4.336;2022-07-09T13:23:37;2.10;;;1.60;;
14470;SDS011;7321;50.802;4.336;2022-07-09T13:26:03;2.08;;;1.40;;
14470;SDS011;7321;50.802;4.336;2022-07-09T13:28:29;2.85;;;1.40;;
14470;SDS011;7321;50.802;4.336;2022-07-09T13:30:55;2.25;;;1.65;;
14470;SDS011;7321;50.802;4.336;2022-07-09T13:33:21;4.03;;;1.60;;
14470;SDS011;7321;50.802;4.336;2022-07-09T13:35:46;3.33;;;1.77;;
14470;SDS011;7321;50.802;4.336;2022-07-09T13:38:12;5.20;;;1.60;;
14470;SDS011;7321;50.802;4.336;2022-07-09T13:40:38;3.08;;;1.40;;
14470;SDS011;7321;50.802;4.336;2022-07-09T13:43:04;2.80;;;1.45;;
14470;SDS011;7321;50.802;4.336;2022-07-09T13:45:30;3.60;;;1.60;;
14470;SDS011;7321;50.802;4.336;2022-07-09T13:47:56;2.70;;;1.60;;
14470;SDS011;7321;50.802;4.336;2022-07-09T13:50:22;3.35;;;1.80;;
14470;SDS011;7321;50.802;4.336;2022-07-09T13:52:48;1.92;;;1.73;;
14470;SDS011;7321;50.802;4.336;2022-07-09T13:55:14;1.92;;;1.60;;
14470;SDS011;7321;50.802;4.336;2022-07-09T13:57:39;2.78;;;1.35;;
14470;SDS011;7321;50.802;4.336;2022-07-09T14:00:06;3.67;;;1.65;;
14470;SDS011;7321;50.802;4.336;2022-07-09T14:02:32;4.03;;;1.40;;
14470;SDS011;7321;50.802;4.336;2022-07-09T14:05:01;5.15;;;2.20;;
14470;SDS011;7321;50.802;4.336;2022-07-09T14:07:28;2.75;;;1.23;;
14470;SDS011;7321;50.802;4.336;2022-07-09T14:09:54;1.30;;;1.20;;
14470;SDS011;7321;50.802;4.336;2022-07-09T14:12:21;4.90;;;1.50;;
14470;SDS011;7321;50.802;4.336;2022-07-09T14:14:49;1.90;;;1.52;;
14470;SDS011;7321;50.802;4.336;2022-07-09T14:17:15;1.60;;;1.40;;
14470;SDS011;7321;50.802;4.336;2022-07-09T14:19:40;2.55;;;1.60;;
14470;SDS011;7321;50.802;4.336;2022-07-09T14:22:06;1.90;;;1.75;;
14470;SDS011;7321;50.802;4.336;2022-07-09T14:24:33;2.97;;;1.77;;
14470;SDS011;7321;50.802;4.336;2022-07-09T14:26:59;3.17;;;1.80;;
14470;SDS011;7321;50.802;4.336;2022-07-09T14:29:25;3.10;;;1.52;;
14470;SDS011;7321;50.802;4.336;2022-07-09T14:31:51;2.33;;;1.50;;
14470;SDS011;7321;50.802;4.336;2022-07-09T14:34:17;3.25;;;1.30;;
14470;SDS011;7321;50.802;4.336;2022-07-09T14:36:44;3.38;;;1.65;;
14470;SDS011;7321;50.802;4.336;2022-07-09T14:39:10;2.50;;;1.85;;
14470;SDS011;7321;50.802;4.336;2022-07-09T14:41:36;2.90;;;1.63;;
14470;SDS011;7321;50.802;4.336;2022-07-09T14:44:02;2.90;;;1.60;;
14470;SDS011;7321;50.802;4.336;2022-07-09T14:46:28;5.57;;;1.63;;
14470;SDS011;7321;50.802;4.336;2022-07-09T14:48:54;3.90;;;1.55;;
14470;SDS011;7321;50.802;4.336;2022-07-09T14:51:20;2.20;;;1.17;;
14470;SDS011;7321;50.802;4.336;2022-07-09T14:53:46;3.35;;;1.67;;
14470;SDS011;7321;50.802;4.336;2022-07-09T14:56:12;4.50;;;1.65;;
14470;SDS011;7321;50.802;4.336;2022-07-09T14:58:38;3.33;;;1.58;;
14470;SDS011;7321;50.802;4.336;2022-07-09T15:01:05;7.25;;;1.77;;
14470;SDS011;7321;50.802;4.336;2022-07-09T15:03:31;3.63;;;1.67;;
14470;SDS011;7321;50.802;4.336;2022-07-09T15:05:56;4.35;;;1.52;;